Time;durP1;ratioP1;P1;durP2;ratioP2;P2;SDS_P1;SDS_P2;PMS_P1;PMS_P2;Temp;Humidity;BMP_temperature;BMP_pressure;BME280_temperature;BME280_humidity;BME280_pressure;Samples;Min_cycle;Max_cycle;Signal;HPM_P1;HPM_P2
2021/07/06 08:16:45;;;;;;;3.80;0.75;;;;;;;;;;5077585;28;20835;-85
2021/07/06 08:19:20;;;;;;;3.72;0.98;;;;;;;;;;5073460;28;20040;-84
2021/07/06 08:22:00;;;;;;;1.80;0.90;;;;;;;;;;5073191;28;20037;-84
2021/07/06 08:24:30;;;;;;;7.75;1.60;;;;;;;;;;5070890;28;20068;-84
2021/07/06 08:26:57;;;;;;;3.25;1.20;;;;;;;;;;5070143;28;20045;-85
2021/07/06 08:29:25;;;;;;;4.07;1.27;;;;;;;;;;5072483;28;20082;-84
2021/07/06 08:31:55;;;;;;;1.60;1.48;;;;;;;;;;5076589;28;20067;-84
2021/07/06 08:34:31;;;;;;;4.47;1.15;;;;;;;;;;5074201;28;20077;-84
2021/07/06 08:36:58;;;;;;;4.47;1.40;;;;;;;;;;5075027;28;20339;-84
2021/07/06 08:39:25;;;;;;;6.55;1.33;;;;;;;;;;5072012;28;20079;-86
2021/07/06 08:41:52;;;;;;;3.05;1.08;;;;;;;;;;5073446;28;20044;-85
2021/07/06 08:44:27;;;;;;;4.47;1.30;;;;;;;;;;5076367;28;20059;-87
2021/07/06 08:46:56;;;;;;;3.50;1.13;;;;;;;;;;5070275;28;20049;-84
2021/07/06 08:49:30;;;;;;;5.75;1.40;;;;;;;;;;5084474;28;20048;-85
2021/07/06 08:52:03;;;;;;;4.75;1.95;;;;;;;;;;5060501;28;20069;-85
2021/07/06 08:54:31;;;;;;;4.25;1.70;;;;;;;;;;5076112;28;20240;-84
2021/07/06 08:56:58;;;;;;;7.47;2.08;;;;;;;;;;5074061;28;20045;-85
2021/07/06 08:59:30;;;;;;;8.68;2.25;;;;;;;;;;5073287;28;20259;-85
2021/07/06 09:02:00;;;;;;;12.10;1.90;;;;;;;;;;5081304;28;20167;-86
2021/07/06 09:04:41;;;;;;;8.80;2.28;;;;;;;;;;5083314;28;20040;-84
2021/07/06 09:07:08;;;;;;;7.32;1.50;;;;;;;;;;5065373;28;20072;-85
2021/07/06 09:09:35;;;;;;;8.27;1.70;;;;;;;;;;5068920;28;20397;-85
2021/07/06 09:12:02;;;;;;;3.95;1.30;;;;;;;;;;5069786;28;20200;-85
2021/07/06 09:14:31;;;;;;;5.93;1.60;;;;;;;;;;5075168;28;20103;-85
2021/07/06 09:17:12;;;;;;;2.40;0.93;;;;;;;;;;5074283;28;20075;-85
2021/07/06 09:19:41;;;;;;;4.90;1.85;;;;;;;;;;5071811;28;20052;-84
2021/07/06 09:22:25;;;;;;;7.03;1.30;;;;;;;;;;5069232;28;20044;-86
2021/07/06 09:25:08;;;;;;;4.25;1.10;;;;;;;;;;5075492;28;20053;-84
2021/07/06 09:27:35;;;;;;;2.88;1.20;;;;;;;;;;5066519;28;20068;-85
2021/07/06 09:30:27;;;;;;;4.70;1.50;;;;;;;;;;5070483;28;20043;-84
2021/07/06 09:33:03;;;;;;;9.48;1.50;;;;;;;;;;5050500;28;20052;-84
2021/07/06 09:35:49;;;;;;;8.23;1.90;;;;;;;;;;5062768;28;20048;-84
2021/07/06 09:38:31;;;;;;;13.00;3.42;;;;;;;;;;5059611;28;20049;-86
2021/07/06 09:41:17;;;;;;;7.13;1.90;;;;;;;;;;5055293;28;20063;-86
2021/07/06 09:43:45;;;;;;;6.80;1.80;;;;;;;;;;5043457;28;20044;-86
2021/07/06 09:46:12;;;;;;;5.93;1.27;;;;;;;;;;5057809;28;20116;-84
2021/07/06 09:48:47;;;;;;;8.77;1.92;;;;;;;;;;5054026;28;20065;-84
2021/07/06 09:51:19;;;;;;;2.47;1.03;;;;;;;;;;5054735;28;20258;-83
2021/07/06 09:53:52;;;;;;;4.68;0.90;;;;;;;;;;5053642;28;20286;-84
2021/07/06 09:56:22;;;;;;;8.93;0.98;;;;;;;;;;5054278;28;20069;-83
2021/07/06 09:58:50;;;;;;;2.53;0.90;;;;;;;;;;5050806;28;20243;-84
2021/07/06 10:01:21;;;;;;;0.85;0.70;;;;;;;;;;5052827;28;20059;-85
2021/07/06 10:03:50;;;;;;;9.63;0.98;;;;;;;;;;5051601;28;20048;-85
2021/07/06 10:06:19;;;;;;;5.78;0.80;;;;;;;;;;5053681;28;20053;-85
2021/07/06 10:08:51;;;;;;;2.75;1.05;;;;;;;;;;5055127;28;20040;-84
2021/07/06 10:11:19;;;;;;;3.08;0.80;;;;;;;;;;5053688;28;20057;-84
2021/07/06 10:13:45;;;;;;;3.15;0.80;;;;;;;;;;5062701;28;20049;-84
2021/07/06 10:16:14;;;;;;;4.63;0.70;;;;;;;;;;5056457;28;20053;-87
2021/07/06 10:18:42;;;;;;;3.00;0.60;;;;;;;;;;5057881;28;20429;-85
2021/07/06 10:21:09;;;;;;;2.95;0.70;;;;;;;;;;5050736;28;20057;-85
2021/07/06 10:23:37;;;;;;;2.97;0.68;;;;;;;;;;5037673;28;20300;-86
2021/07/06 10:26:10;;;;;;;6.18;1.90;;;;;;;;;;5034911;28;20156;-84
2021/07/06 10:28:37;;;;;;;3.35;1.17;;;;;;;;;;5030415;28;20100;-85
2021/07/06 10:31:14;;;;;;;4.20;0.90;;;;;;;;;;5029980;28;20049;-85
2021/07/06 10:33:45;;;;;;;1.65;0.70;;;;;;;;;;5050499;28;20280;-85
2021/07/06 10:36:17;;;;;;;5.30;1.83;;;;;;;;;;5049200;28;20095;-86
2021/07/06 10:38:45;;;;;;;3.58;1.38;;;;;;;;;;5051824;28;20128;-84
2021/07/06 10:41:21;;;;;;;3.33;1.00;;;;;;;;;;5052221;28;20262;-84
2021/07/06 10:43:55;;;;;;;2.90;0.93;;;;;;;;;;5054986;28;20303;-85
2021/07/06 10:46:22;;;;;;;4.72;0.70;;;;;;;;;;5051640;28;20057;-86
2021/07/06 10:48:50;;;;;;;1.00;0.50;;;;;;;;;;5051062;28;20072;-86
2021/07/06 10:51:38;;;;;;;2.90;0.80;;;;;;;;;;5044942;28;20061;-85
2021/07/06 10:54:06;;;;;;;4.53;0.82;;;;;;;;;;5051576;28;20059;-86
2021/07/06 10:56:33;;;;;;;3.78;1.35;;;;;;;;;;5054815;28;20064;-86
2021/07/06 10:59:05;;;;;;;5.47;1.25;;;;;;;;;;5052539;28;20056;-85
2021/07/06 11:01:38;;;;;;;3.60;0.93;;;;;;;;;;5053217;28;20416;-85
2021/07/06 11:04:13;;;;;;;4.75;0.90;;;;;;;;;;5055251;28;20045;-88
2021/07/06 11:06:47;;;;;;;3.58;1.10;;;;;;;;;;5057843;28;20034;-86
2021/07/06 11:09:19;;;;;;;1.70;0.90;;;;;;;;;;5054952;28;20040;-86
2021/07/06 11:11:46;;;;;;;2.58;0.70;;;;;;;;;;5058657;28;20049;-86
2021/07/06 11:14:26;;;;;;;4.18;0.80;;;;;;;;;;5062607;28;20201;-87
2021/07/06 11:17:06;;;;;;;1.25;0.90;;;;;;;;;;5057259;28;20079;-85
2021/07/06 11:19:44;;;;;;;0.70;0.70;;;;;;;;;;5053369;28;20037;-85
2021/07/06 11:22:11;;;;;;;3.97;1.00;;;;;;;;;;5056582;28;20237;-86
2021/07/06 11:24:49;;;;;;;5.20;1.08;;;;;;;;;;5053478;28;20119;-86
2021/07/06 11:27:36;;;;;;;4.95;1.35;;;;;;;;;;5052485;28;20254;-88
2021/07/06 11:30:23;;;;;;;3.45;1.40;;;;;;;;;;5058379;28;20040;-85
2021/07/06 11:33:16;;;;;;;3.45;0.82;;;;;;;;;;5060114;28;20335;-85
2021/07/06 11:35:50;;;;;;;4.55;1.00;;;;;;;;;;5056235;28;20099;-85
2021/07/06 11:38:18;;;;;;;1.58;0.77;;;;;;;;;;5058137;28;20045;-87
2021/07/06 11:41:01;;;;;;;2.80;0.77;;;;;;;;;;5059733;28;20045;-85
2021/07/06 11:43:30;;;;;;;3.10;0.85;;;;;;;;;;5058320;28;20059;-86
2021/07/06 11:46:04;;;;;;;2.15;0.68;;;;;;;;;;5053972;28;20050;-86
2021/07/06 11:48:41;;;;;;;1.40;0.75;;;;;;;;;;5049575;28;20087;-84
2021/07/06 11:51:16;;;;;;;5.82;1.42;;;;;;;;;;5052793;28;20422;-86
2021/07/06 11:53:44;;;;;;;6.57;1.35;;;;;;;;;;5052314;28;20435;-84
2021/07/06 11:56:12;;;;;;;3.47;0.60;;;;;;;;;;5054406;28;20052;-86
2021/07/06 11:58:41;;;;;;;1.17;0.68;;;;;;;;;;5051915;28;20083;-84
2021/07/06 12:01:10;;;;;;;6.82;1.40;;;;;;;;;;5058064;28;20055;-85
2021/07/06 12:03:42;;;;;;;5.25;0.80;;;;;;;;;;5064026;28;20049;-86
2021/07/06 12:06:13;;;;;;;3.03;0.90;;;;;;;;;;5063707;28;20068;-86
2021/07/06 12:08:48;;;;;;;3.85;0.80;;;;;;;;;;5063044;28;20037;-86
2021/07/06 12:11:16;;;;;;;2.65;0.60;;;;;;;;;;5060261;28;20045;-86
2021/07/06 12:13:45;;;;;;;4.57;0.70;;;;;;;;;;5063859;28;20061;-86
2021/07/06 12:16:16;;;;;;;4.95;0.82;;;;;;;;;;5063592;28;20049;-86
2021/07/06 12:19:08;;;;;;;2.95;0.77;;;;;;;;;;5067722;28;20250;-86
2021/07/06 12:21:40;;;;;;;0.60;0.47;;;;;;;;;;5069774;28;20037;-85
2021/07/06 12:24:14;;;;;;;3.55;1.70;;;;;;;;;;5065951;28;20063;-86
2021/07/06 12:27:10;;;;;;;4.70;0.63;;;;;;;;;;5065148;28;20063;-87
2021/07/06 12:29:40;;;;;;;3.17;0.80;;;;;;;;;;5065438;28;20072;-86
2021/07/06 12:32:14;;;;;;;3.33;0.75;;;;;;;;;;5065982;28;20057;-86
2021/07/06 12:34:53;;;;;;;2.00;0.80;;;;;;;;;;5062088;28;20060;-86
2021/07/06 12:37:34;;;;;;;4.22;1.00;;;;;;;;;;5056493;28;20071;-86
2021/07/06 12:40:03;;;;;;;1.23;0.65;;;;;;;;;;5064254;28;20117;-86
2021/07/06 12:42:39;;;;;;;2.92;1.23;;;;;;;;;;5049415;28;20052;-86
2021/07/06 12:45:10;;;;;;;2.03;0.50;;;;;;;;;;5040981;28;20071;-86
2021/07/06 12:47:41;;;;;;;2.65;0.68;;;;;;;;;;5062631;28;20110;-86
2021/07/06 12:50:19;;;;;;;1.38;0.70;;;;;;;;;;5065157;28;20060;-87
2021/07/06 12:52:58;;;;;;;8.85;1.40;;;;;;;;;;5056517;28;20072;-89
2021/07/06 12:55:27;;;;;;;1.98;0.60;;;;;;;;;;5058642;28;20048;-86
2021/07/06 12:58:03;;;;;;;1.10;0.57;;;;;;;;;;5060228;28;20419;-87
2021/07/06 13:00:34;;;;;;;1.10;0.50;;;;;;;;;;5058306;28;20091;-88
2021/07/06 13:03:07;;;;;;;1.75;0.70;;;;;;;;;;5061617;28;20113;-89
2021/07/06 13:05:39;;;;;;;3.47;0.63;;;;;;;;;;5062118;28;20220;-86
2021/07/06 13:08:16;;;;;;;1.67;0.73;;;;;;;;;;5061898;28;20053;-88
2021/07/06 13:10:47;;;;;;;2.15;1.00;;;;;;;;;;5059966;28;20091;-88
2021/07/06 13:13:22;;;;;;;2.88;0.70;;;;;;;;;;5064037;28;20057;-87
2021/07/06 13:15:58;;;;;;;4.85;1.15;;;;;;;;;;5056031;28;20049;-88
2021/07/06 13:18:47;;;;;;;4.43;0.80;;;;;;;;;;5055419;28;20045;-87
2021/07/06 13:21:15;;;;;;;;;;;;;;;;;;5051207;28;20108;-87
2021/07/06 13:23:47;;;;;;;5.45;0.98;;;;;;;;;;5052637;28;20363;-88
2021/07/06 13:26:15;;;;;;;6.55;1.00;;;;;;;;;;5055471;28;20096;-87
2021/07/06 13:28:44;;;;;;;5.22;1.00;;;;;;;;;;5051344;28;20067;-87
2021/07/06 13:31:10;;;;;;;1.63;0.65;;;;;;;;;;5051590;28;20041;-86
2021/07/06 13:33:39;;;;;;;3.63;1.00;;;;;;;;;;5052084;28;20229;-88
2021/07/06 13:36:25;;;;;;;2.63;0.90;;;;;;;;;;5049467;28;20132;-86
2021/07/06 13:38:55;;;;;;;3.55;0.60;;;;;;;;;;5054075;28;20293;-88
2021/07/06 13:41:28;;;;;;;1.35;0.57;;;;;;;;;;5054370;28;20048;-88
2021/07/06 13:43:55;;;;;;;1.88;0.70;;;;;;;;;;5053235;28;20134;-88
2021/07/06 13:46:24;;;;;;;2.75;0.70;;;;;;;;;;5039956;28;20129;-89
2021/07/06 13:49:03;;;;;;;3.00;1.02;;;;;;;;;;5053555;28;20079;-87
2021/07/06 13:51:30;;;;;;;1.75;0.50;;;;;;;;;;5055880;28;20087;-87
2021/07/06 13:54:03;;;;;;;2.67;0.55;;;;;;;;;;5054253;28;20108;-87
2021/07/06 13:56:36;;;;;;;5.68;0.50;;;;;;;;;;5052464;28;20056;-88
2021/07/06 13:59:04;;;;;;;1.35;0.60;;;;;;;;;;5055199;28;20244;-87
2021/07/06 14:01:31;;;;;;;7.95;0.90;;;;;;;;;;5059764;28;20054;-87
2021/07/06 14:04:00;;;;;;;7.05;0.90;;;;;;;;;;5055281;28;20417;-88
2021/07/06 14:06:27;;;;;;;2.85;0.80;;;;;;;;;;5058038;28;20053;-86
2021/07/06 14:08:53;;;;;;;0.82;0.50;;;;;;;;;;5065800;28;20055;-88
2021/07/06 14:11:27;;;;;;;0.98;0.40;;;;;;;;;;5065173;28;20072;-88
2021/07/06 14:13:54;;;;;;;0.70;0.40;;;;;;;;;;5067949;28;20048;-88
2021/07/06 14:16:33;;;;;;;5.82;0.50;;;;;;;;;;5052747;28;20049;-87
2021/07/06 14:19:04;;;;;;;5.95;0.77;;;;;;;;;;5049916;28;20452;-88
2021/07/06 14:21:34;;;;;;;1.60;0.60;;;;;;;;;;5047719;28;20315;-87
2021/07/06 14:24:01;;;;;;;9.77;0.70;;;;;;;;;;5054939;28;20473;-87
2021/07/06 14:26:29;;;;;;;1.35;0.63;;;;;;;;;;5054052;28;20056;-87
2021/07/06 14:28:58;;;;;;;1.75;0.65;;;;;;;;;;5055356;28;20088;-88
2021/07/06 14:31:38;;;;;;;0.45;0.32;;;;;;;;;;5056412;28;20045;-88
2021/07/06 14:34:07;;;;;;;2.50;0.60;;;;;;;;;;5056584;28;20216;-88
2021/07/06 14:36:40;;;;;;;3.20;0.57;;;;;;;;;;5064975;28;20064;-88
2021/07/06 14:39:08;;;;;;;2.40;0.60;;;;;;;;;;5059297;28;20068;-88
2021/07/06 14:41:35;;;;;;;6.75;0.68;;;;;;;;;;5055934;28;20118;-88
2021/07/06 14:44:05;;;;;;;0.65;0.40;;;;;;;;;;5053052;28;20343;-87
2021/07/06 14:46:33;;;;;;;3.92;0.60;;;;;;;;;;5051797;28;20154;-88
2021/07/06 14:49:04;;;;;;;1.50;0.40;;;;;;;;;;5051499;28;20040;-87
2021/07/06 14:51:38;;;;;;;0.82;0.50;;;;;;;;;;5052726;28;20041;-87
2021/07/06 14:54:05;;;;;;;2.83;0.40;;;;;;;;;;5050442;28;20142;-86
2021/07/06 14:56:35;;;;;;;5.20;0.50;;;;;;;;;;5047760;28;20049;-88
2021/07/06 14:59:02;;;;;;;5.93;0.85;;;;;;;;;;5051622;28;20048;-87
2021/07/06 15:01:35;;;;;;;3.20;0.52;;;;;;;;;;5040856;28;20071;-87
2021/07/06 15:04:02;;;;;;;4.63;0.73;;;;;;;;;;5050344;28;20144;-87
2021/07/06 15:06:29;;;;;;;6.30;0.60;;;;;;;;;;5063787;28;20517;-87
2021/07/06 15:08:58;;;;;;;4.90;0.70;;;;;;;;;;5054152;28;20053;-87
2021/07/06 15:11:25;;;;;;;6.70;0.65;;;;;;;;;;5061275;28;20370;-87
2021/07/06 15:13:52;;;;;;;2.22;0.50;;;;;;;;;;5064744;28;20037;-86
2021/07/06 15:16:21;;;;;;;3.92;0.50;;;;;;;;;;5063482;28;20244;-87
2021/07/06 15:18:49;;;;;;;6.07;0.80;;;;;;;;;;5054744;28;20077;-87
2021/07/06 15:21:16;;;;;;;6.03;0.95;;;;;;;;;;5049255;28;20049;-88
2021/07/06 15:23:44;;;;;;;5.35;1.05;;;;;;;;;;5049590;28;20568;-87
2021/07/06 15:26:11;;;;;;;3.63;0.50;;;;;;;;;;5052637;28;20045;-86
2021/07/06 15:28:43;;;;;;;4.20;0.70;;;;;;;;;;5052073;28;20275;-86
2021/07/06 15:31:13;;;;;;;2.90;0.65;;;;;;;;;;5045904;28;20045;-86
2021/07/06 15:33:43;;;;;;;8.25;0.50;;;;;;;;;;5050151;28;20045;-88
2021/07/06 15:36:13;;;;;;;1.83;0.40;;;;;;;;;;5059143;28;20025;-88
2021/07/06 15:38:42;;;;;;;1.02;0.55;;;;;;;;;;5066025;28;20039;-86
2021/07/06 15:41:11;;;;;;;3.85;0.45;;;;;;;;;;5063076;28;20072;-86
2021/07/06 15:43:38;;;;;;;1.30;0.60;;;;;;;;;;5054930;28;20045;-87
2021/07/06 15:46:08;;;;;;;3.92;0.50;;;;;;;;;;5047232;28;20363;-88
2021/07/06 15:48:35;;;;;;;1.55;0.68;;;;;;;;;;5046164;28;20320;-87
2021/07/06 15:51:05;;;;;;;2.42;0.77;;;;;;;;;;5048608;28;20398;-89
2021/07/06 15:53:32;;;;;;;3.35;0.50;;;;;;;;;;5049373;28;20474;-87
2021/07/06 15:55:59;;;;;;;5.00;0.40;;;;;;;;;;5049168;28;20074;-87
2021/07/06 15:58:35;;;;;;;1.73;0.50;;;;;;;;;;5054763;28;20143;-86
2021/07/06 16:01:05;;;;;;;2.45;0.68;;;;;;;;;;5048677;28;20549;-87
2021/07/06 16:03:33;;;;;;;8.75;2.13;;;;;;;;;;5046201;28;20104;-87
2021/07/06 16:06:01;;;;;;;2.58;0.57;;;;;;;;;;5050674;28;20049;-87
2021/07/06 16:08:31;;;;;;;3.85;0.47;;;;;;;;;;5047045;28;20160;-87
2021/07/06 16:10:58;;;;;;;3.15;0.70;;;;;;;;;;5044257;28;20107;-87
2021/07/06 16:13:25;;;;;;;5.95;0.30;;;;;;;;;;5046422;28;20051;-87
2021/07/06 16:15:55;;;;;;;5.60;0.80;;;;;;;;;;5049243;28;20080;-86
2021/07/06 16:18:25;;;;;;;2.30;0.70;;;;;;;;;;5048717;28;20206;-88
2021/07/06 16:21:05;;;;;;;4.72;0.60;;;;;;;;;;5046177;28;20064;-87
2021/07/06 16:23:42;;;;;;;1.63;0.50;;;;;;;;;;5052251;28;20049;-87
2021/07/06 16:26:22;;;;;;;7.88;1.67;;;;;;;;;;5045848;28;20098;-86
2021/07/06 16:28:55;;;;;;;1.13;0.60;;;;;;;;;;5047440;28;20056;-86
2021/07/06 16:31:22;;;;;;;2.75;0.90;;;;;;;;;;5050514;28;20049;-86
2021/07/06 16:33:49;;;;;;;3.75;0.50;;;;;;;;;;5049835;28;20166;-86
2021/07/06 16:36:16;;;;;;;1.63;0.30;;;;;;;;;;5049437;28;20595;-86
2021/07/06 16:38:47;;;;;;;3.00;0.70;;;;;;;;;;5054644;28;20084;-87
2021/07/06 16:41:20;;;;;;;2.65;0.60;;;;;;;;;;5053071;28;20116;-87
2021/07/06 16:43:47;;;;;;;2.67;0.60;;;;;;;;;;5055200;28;20048;-87
2021/07/06 16:46:14;;;;;;;5.43;0.60;;;;;;;;;;5057218;28;20048;-87
2021/07/06 16:48:41;;;;;;;2.08;0.65;;;;;;;;;;5058479;28;20044;-87
2021/07/06 17:59:29;;;;;;;5.30;1.23;;;;;;;;;;5052026;28;20053;-86
2021/07/06 18:04:44;;;;;;;8.98;0.80;;;;;;;;;;5047081;28;20041;-86
2021/07/06 18:07:11;;;;;;;9.98;1.00;;;;;;;;;;5056877;28;20139;-87
2021/07/06 18:09:39;;;;;;;5.40;0.85;;;;;;;;;;5053073;28;20049;-87
2021/07/06 18:12:07;;;;;;;4.47;1.05;;;;;;;;;;5050994;28;20438;-87
2021/07/06 18:14:35;;;;;;;5.93;0.75;;;;;;;;;;5043796;28;20069;-86
2021/07/06 18:17:27;;;;;;;8.50;0.80;;;;;;;;;;5051508;28;20317;-88
2021/07/06 18:20:08;;;;;;;7.57;1.00;;;;;;;;;;5051713;28;20045;-87
2021/07/06 18:22:36;;;;;;;5.07;0.80;;;;;;;;;;5052141;28;20303;-87
2021/07/06 18:25:04;;;;;;;9.30;1.48;;;;;;;;;;5051688;28;20051;-86
2021/07/06 18:27:33;;;;;;;5.32;1.13;;;;;;;;;;5051815;28;20443;-87
2021/07/06 18:30:00;;;;;;;2.33;0.85;;;;;;;;;;5053782;28;20080;-86
2021/07/06 18:32:30;;;;;;;6.65;1.30;;;;;;;;;;5052207;28;20103;-87
2021/07/06 18:35:03;;;;;;;6.07;1.55;;;;;;;;;;5050301;28;20207;-86
2021/07/06 18:37:35;;;;;;;4.03;0.90;;;;;;;;;;5052085;28;20056;-87
2021/07/06 18:40:08;;;;;;;4.38;0.90;;;;;;;;;;5054912;28;20114;-86
2021/07/06 18:42:37;;;;;;;5.78;0.82;;;;;;;;;;5051348;28;20403;-85
2021/07/06 18:45:05;;;;;;;11.27;1.13;;;;;;;;;;5053170;28;20041;-87
2021/07/06 18:47:38;;;;;;;4.32;0.88;;;;;;;;;;5057414;28;20106;-87
2021/07/06 18:50:21;;;;;;;13.07;1.27;;;;;;;;;;5057592;28;20091;-87
2021/07/06 18:53:04;;;;;;;6.55;0.90;;;;;;;;;;5057685;28;20293;-86
2021/07/06 18:55:33;;;;;;;5.32;1.10;;;;;;;;;;5055198;28;20107;-87
2021/07/06 18:58:02;;;;;;;8.02;1.00;;;;;;;;;;5061508;28;20051;-87
2021/07/06 19:00:37;;;;;;;15.75;1.58;;;;;;;;;;5067526;28;20156;-86
2021/07/06 19:03:07;;;;;;;12.25;1.20;;;;;;;;;;5054490;28;20336;-87
2021/07/06 19:05:38;;;;;;;4.40;1.23;;;;;;;;;;5050173;28;20260;-87
2021/07/06 19:08:05;;;;;;;10.68;1.70;;;;;;;;;;5053633;28;20552;-86
2021/07/06 19:10:33;;;;;;;5.70;1.48;;;;;;;;;;5056684;28;20166;-87
2021/07/06 19:13:01;;;;;;;11.25;1.20;;;;;;;;;;5056759;28;20071;-87
2021/07/06 19:15:31;;;;;;;5.47;1.10;;;;;;;;;;5056826;28;20067;-88
2021/07/06 19:18:13;;;;;;;7.63;0.90;;;;;;;;;;5056782;28;20041;-87
2021/07/06 19:20:44;;;;;;;7.85;1.10;;;;;;;;;;5057429;28;20052;-86
2021/07/06 19:32:41;;;;;;;4.32;0.85;;;;;;;;;;5044718;28;20049;-89
2021/07/06 19:35:43;;;;;;;5.78;1.02;;;;;;;;;;5035474;28;20044;-87
2021/07/06 19:38:22;;;;;;;2.70;1.15;;;;;;;;;;5061365;28;20045;-88
2021/07/06 19:40:50;;;;;;;3.05;1.25;;;;;;;;;;5065100;28;20091;-87
2021/07/06 19:43:19;;;;;;;2.25;0.80;;;;;;;;;;5060699;28;20339;-87
2021/07/06 19:45:56;;;;;;;10.20;1.05;;;;;;;;;;5050187;28;20060;-87
2021/07/06 19:48:28;;;;;;;9.07;1.05;;;;;;;;;;5047469;28;20048;-88
2021/07/06 19:50:57;;;;;;;6.95;1.20;;;;;;;;;;5056279;28;20040;-86
2021/07/06 19:53:26;;;;;;;5.40;1.23;;;;;;;;;;5050976;28;20041;-87
2021/07/06 19:55:58;;;;;;;7.22;1.00;;;;;;;;;;5056246;28;20071;-88
2021/07/06 19:58:25;;;;;;;9.38;1.60;;;;;;;;;;5059127;28;20065;-87
2021/07/06 20:01:07;;;;;;;8.40;1.58;;;;;;;;;;5061220;28;20036;-86
2021/07/06 20:03:40;;;;;;;6.72;0.98;;;;;;;;;;5050593;28;20096;-86
2021/07/06 20:06:09;;;;;;;4.47;1.10;;;;;;;;;;5047527;28;20037;-86
2021/07/06 20:08:51;;;;;;;6.78;1.48;;;;;;;;;;5051375;28;20049;-87
2021/07/06 20:11:22;;;;;;;6.82;1.48;;;;;;;;;;5049543;28;20099;-87
2021/07/06 20:13:49;;;;;;;4.35;0.90;;;;;;;;;;5047765;28;20068;-86
2021/07/06 20:16:24;;;;;;;6.53;1.02;;;;;;;;;;5053166;28;20121;-87
2021/07/06 20:18:53;;;;;;;5.80;1.73;;;;;;;;;;5055956;28;20041;-87
2021/07/06 20:21:29;;;;;;;6.75;0.95;;;;;;;;;;5066923;28;20335;-84
2021/07/06 20:24:17;;;;;;;5.18;1.20;;;;;;;;;;5068261;28;20067;-86
2021/07/06 20:26:58;;;;;;;6.70;0.90;;;;;;;;;;5057468;28;20025;-86
2021/07/06 20:29:25;;;;;;;6.20;1.15;;;;;;;;;;5061640;28;20055;-86
2021/07/06 20:32:06;;;;;;;3.97;1.05;;;;;;;;;;5051203;28;20041;-85
2021/07/06 20:34:34;;;;;;;5.20;1.00;;;;;;;;;;5054741;28;20045;-85
2021/07/06 20:37:01;;;;;;;9.95;1.30;;;;;;;;;;5064511;28;20041;-85
2021/07/06 20:39:31;;;;;;;3.85;0.80;;;;;;;;;;5058735;28;20056;-85
2021/07/06 20:41:59;;;;;;;9.15;1.35;;;;;;;;;;5065885;28;20101;-86
2021/07/06 20:44:28;;;;;;;8.40;1.00;;;;;;;;;;5067855;28;20052;-86
2021/07/06 20:46:55;;;;;;;3.72;1.00;;;;;;;;;;5067857;28;20245;-85
2021/07/06 20:49:25;;;;;;;4.97;1.02;;;;;;;;;;5064949;28;20053;-86
2021/07/06 20:51:56;;;;;;;4.85;0.82;;;;;;;;;;5064800;28;20107;-85
2021/07/06 20:54:23;;;;;;;3.67;0.60;;;;;;;;;;5066301;28;20053;-84
2021/07/06 20:56:53;;;;;;;5.07;1.02;;;;;;;;;;5066549;28;20065;-85
2021/07/06 20:59:20;;;;;;;5.57;0.90;;;;;;;;;;5061149;28;20053;-86
2021/07/06 21:01:47;;;;;;;4.18;0.80;;;;;;;;;;5059910;28;20100;-84
2021/07/06 21:04:14;;;;;;;3.95;0.80;;;;;;;;;;5060686;28;20418;-84
2021/07/06 21:06:41;;;;;;;4.22;1.45;;;;;;;;;;5058715;28;20049;-85
2021/07/06 21:09:07;;;;;;;3.53;0.82;;;;;;;;;;5057724;28;20045;-85
2021/07/06 21:11:34;;;;;;;3.67;1.02;;;;;;;;;;5055364;28;20219;-86
2021/07/06 21:14:05;;;;;;;6.70;1.00;;;;;;;;;;5056186;28;20091;-86
2021/07/06 21:16:31;;;;;;;5.07;1.05;;;;;;;;;;5054920;28;20053;-85
2021/07/06 21:19:00;;;;;;;2.05;0.88;;;;;;;;;;5054089;28;20075;-85
2021/07/06 21:21:31;;;;;;;8.07;1.02;;;;;;;;;;5056881;28;20053;-85
2021/07/06 21:23:58;;;;;;;4.68;1.13;;;;;;;;;;5060363;28;20597;-84
2021/07/06 21:26:25;;;;;;;4.60;1.08;;;;;;;;;;5064159;28;20416;-84
2021/07/06 21:28:52;;;;;;;4.55;1.08;;;;;;;;;;5063850;28;20084;-84
2021/07/06 21:31:23;;;;;;;4.78;1.60;;;;;;;;;;5058485;28;20049;-85
2021/07/06 21:33:50;;;;;;;5.22;1.33;;;;;;;;;;5058865;28;20045;-85
2021/07/06 21:36:17;;;;;;;3.63;0.77;;;;;;;;;;5061669;28;20040;-85
2021/07/06 21:38:44;;;;;;;5.03;1.17;;;;;;;;;;5061253;28;20045;-86
2021/07/06 21:41:11;;;;;;;6.05;1.20;;;;;;;;;;5061620;28;20041;-87
2021/07/06 21:43:37;;;;;;;3.95;0.82;;;;;;;;;;5060364;28;20399;-86
2021/07/06 21:46:04;;;;;;;6.38;1.23;;;;;;;;;;5066220;28;20045;-85
2021/07/06 21:48:31;;;;;;;4.25;0.80;;;;;;;;;;5063759;28;20072;-86
2021/07/06 21:50:58;;;;;;;4.78;1.77;;;;;;;;;;5062508;28;20049;-85
2021/07/06 21:53:25;;;;;;;4.60;1.20;;;;;;;;;;5061531;28;20053;-85
2021/07/06 21:55:52;;;;;;;7.75;2.00;;;;;;;;;;5062640;28;20051;-85
2021/07/06 21:58:18;;;;;;;2.83;1.30;;;;;;;;;;5064520;28;20049;-86
2021/07/06 22:00:46;;;;;;;3.75;1.10;;;;;;;;;;5061836;28;20238;-86
2021/07/06 22:03:12;;;;;;;6.72;1.23;;;;;;;;;;5061817;28;20045;-85
2021/07/06 22:05:39;;;;;;;2.85;1.10;;;;;;;;;;5061617;28;20051;-85
2021/07/06 22:08:05;;;;;;;6.65;0.85;;;;;;;;;;5057315;28;20056;-86
2021/07/06 22:10:35;;;;;;;6.13;3.25;;;;;;;;;;5056117;28;20071;-85
2021/07/06 22:13:03;;;;;;;7.18;1.70;;;;;;;;;;5058362;28;20128;-85
2021/07/06 22:15:31;;;;;;;6.07;1.20;;;;;;;;;;5059736;28;20304;-85
2021/07/06 22:18:03;;;;;;;3.53;1.08;;;;;;;;;;5065816;28;20076;-84
2021/07/06 22:20:31;;;;;;;4.10;1.00;;;;;;;;;;5071595;28;20182;-84
2021/07/06 22:23:01;;;;;;;4.97;1.17;;;;;;;;;;5067253;28;20112;-85
2021/07/06 22:25:28;;;;;;;2.53;0.90;;;;;;;;;;5051556;28;20049;-84
2021/07/06 22:27:57;;;;;;;4.05;1.00;;;;;;;;;;5058601;28;20170;-84
2021/07/06 22:30:24;;;;;;;7.28;0.70;;;;;;;;;;5058361;28;20052;-84
2021/07/06 22:32:50;;;;;;;4.82;1.13;;;;;;;;;;5059369;28;20382;-84
2021/07/06 22:35:17;;;;;;;3.65;1.10;;;;;;;;;;5060081;28;20315;-84
2021/07/06 22:37:44;;;;;;;2.28;0.80;;;;;;;;;;5058386;28;20047;-85
2021/07/06 22:40:11;;;;;;;6.07;1.02;;;;;;;;;;5056249;28;20406;-84
2021/07/06 22:42:39;;;;;;;3.28;0.90;;;;;;;;;;5059484;28;20083;-84
2021/07/06 22:45:06;;;;;;;3.53;0.80;;;;;;;;;;5058092;28;20048;-84
2021/07/06 22:47:33;;;;;;;7.28;1.20;;;;;;;;;;5060829;28;20049;-84
2021/07/06 22:50:03;;;;;;;7.93;1.10;;;;;;;;;;5059479;28;20067;-85
2021/07/06 22:52:31;;;;;;;6.78;1.13;;;;;;;;;;5063456;28;20136;-85
2021/07/06 22:54:58;;;;;;;8.38;1.20;;;;;;;;;;5062697;28;20049;-85
2021/07/06 22:57:24;;;;;;;11.18;1.88;;;;;;;;;;5061378;28;20129;-85
2021/07/06 22:59:55;;;;;;;7.03;1.15;;;;;;;;;;5061378;28;20041;-85
2021/07/06 23:02:22;;;;;;;4.75;1.10;;;;;;;;;;5057624;28;20063;-86
2021/07/06 23:04:49;;;;;;;2.60;0.85;;;;;;;;;;5058870;28;20053;-86
2021/07/06 23:07:16;;;;;;;6.63;1.20;;;;;;;;;;5058182;28;20060;-87
2021/07/06 23:09:46;;;;;;;2.75;1.00;;;;;;;;;;5058089;28;20049;-86
2021/07/06 23:12:13;;;;;;;2.35;1.00;;;;;;;;;;5056986;28;20049;-87
2021/07/06 23:14:40;;;;;;;5.50;0.93;;;;;;;;;;5056265;28;20052;-86
2021/07/06 23:17:06;;;;;;;3.78;1.23;;;;;;;;;;5056453;28;20068;-86
2021/07/06 23:19:34;;;;;;;3.70;1.00;;;;;;;;;;5056834;28;20041;-87
2021/07/06 23:22:01;;;;;;;4.93;1.30;;;;;;;;;;5057398;28;20045;-87
2021/07/06 23:24:28;;;;;;;4.60;1.10;;;;;;;;;;5057654;28;20049;-85
2021/07/06 23:26:58;;;;;;;4.65;1.10;;;;;;;;;;5057303;28;20079;-85
2021/07/06 23:29:25;;;;;;;2.53;1.00;;;;;;;;;;5062087;28;20049;-85
2021/07/06 23:31:51;;;;;;;2.25;1.08;;;;;;;;;;5061188;28;20049;-84
2021/07/06 23:34:21;;;;;;;7.55;1.50;;;;;;;;;;5060376;28;20061;-85
2021/07/06 23:36:48;;;;;;;2.97;1.25;;;;;;;;;;5065509;28;20045;-85
2021/07/06 23:39:15;;;;;;;3.58;1.50;;;;;;;;;;5060328;28;20049;-85
2021/07/06 23:41:42;;;;;;;5.05;1.20;;;;;;;;;;5060712;28;20053;-85
2021/07/06 23:44:09;;;;;;;2.67;1.10;;;;;;;;;;5060570;28;20044;-86
2021/07/06 23:46:35;;;;;;;2.90;1.08;;;;;;;;;;5058830;28;20056;-86
2021/07/06 23:49:04;;;;;;;10.13;1.50;;;;;;;;;;5057719;28;20049;-86
2021/07/06 23:51:37;;;;;;;4.28;1.23;;;;;;;;;;5058644;28;20049;-85
2021/07/06 23:54:03;;;;;;;5.97;1.38;;;;;;;;;;5059866;28;20045;-84
2021/07/06 23:56:33;;;;;;;6.00;1.40;;;;;;;;;;5060165;28;20324;-85
2021/07/06 23:59:00;;;;;;;5.13;1.70;;;;;;;;;;5067189;28;20159;-84
